This is the latest recevied weather packets stored in our database for station/object CA3EAP-13. If no packets are shown the sender has not sent any weather packets the latest 10 day(s).
| Time | Temp. | Humidity | Pressure | Rain* | Wind** | Luminosity | Snow |
|---|---|---|---|---|---|---|---|
| 1777698304 | 13.89° C | 78% | 1018.8 hPa | - | - | - | - |
| 1777697704 | 14.44° C | 76% | 1018.7 hPa | - | - | - | - |
| 1777697104 | 14.44° C | 75% | 1018.7 hPa | - | - | - | - |
| 1777696504 | 15° C | 75% | 1018.7 hPa | - | - | - | - |
| 1777695904 | 14.44° C | 77% | 1018.9 hPa | - | - | - | - |
| 1777695304 | 14.44° C | 76% | 1019.1 hPa | - | - | - | - |
| 1777694704 | 15° C | 75% | 1019.1 hPa | - | - | - | - |
| 1777694104 | 15.56° C | 71% | 1019 hPa | - | - | - | - |
| 1777693504 | 16.11° C | 71% | 1019 hPa | - | - | - | - |
| 1777692904 | 16.11° C | 71% | 1019.1 hPa | - | - | - | - |
| 1777692304 | 16.11° C | 71% | 1019.2 hPa | - | - | - | - |
| 1777691704 | 16.11° C | 71% | 1019.2 hPa | - | - | - | - |
| 1777691104 | 16.11° C | 71% | 1019.3 hPa | - | - | - | - |
| 1777690504 | 16.11° C | 72% | 1019.3 hPa | - | - | - | - |
| 1777689904 | 16.11° C | 74% | 1019.4 hPa | - | - | - | - |
| 1777689304 | 16.11° C | 73% | 1019.4 hPa | - | - | - | - |
| 1777688704 | 15.56° C | 75% | 1019.5 hPa | - | - | - | - |
| 1777688104 | 16.67° C | 72% | 1019.4 hPa | - | - | - | - |
| 1777687504 | 16.67° C | 70% | 1019.2 hPa | - | - | - | - |
| 1777686904 | 16.67° C | 70% | 1019.2 hPa | - | - | - | - |
| 1777686304 | 16.67° C | 70% | 1019.2 hPa | - | - | - | - |
| 1777685704 | 17.22° C | 69% | 1019.1 hPa | - | - | - | - |
| 1777685104 | 17.22° C | 69% | 1019.1 hPa | - | - | - | - |
| 1777684504 | 17.22° C | 70% | 1019.1 hPa | - | - | - | - |
| 1777683905 | 17.22° C | 70% | 1019.1 hPa | - | - | - | - |
* Rain since midnight (hover to see other rain measurements)
** Current wind speed in m/s (hover to see current wind gust speed)